sensor_id;sensor_type;location;lat;lon;timestamp;temperature;humidity
12704;DHT22;6416;52.182;7.650;2024-01-30T00:01:56;7.60;83.70
12704;DHT22;6416;52.182;7.650;2024-01-30T00:04:21;7.50;83.70
12704;DHT22;6416;52.182;7.650;2024-01-30T00:06:47;7.50;83.90
12704;DHT22;6416;52.182;7.650;2024-01-30T00:09:12;7.50;84.00
12704;DHT22;6416;52.182;7.650;2024-01-30T00:11:38;7.50;84.20
12704;DHT22;6416;52.182;7.650;2024-01-30T00:14:04;7.50;84.70
12704;DHT22;6416;52.182;7.650;2024-01-30T00:16:29;7.50;85.00
12704;DHT22;6416;52.182;7.650;2024-01-30T00:18:55;7.50;85.20
12704;DHT22;6416;52.182;7.650;2024-01-30T00:21:21;7.50;85.20
12704;DHT22;6416;52.182;7.650;2024-01-30T00:23:47;7.50;85.40
12704;DHT22;6416;52.182;7.650;2024-01-30T00:26:13;7.50;85.40
12704;DHT22;6416;52.182;7.650;2024-01-30T00:28:38;7.50;85.50
12704;DHT22;6416;52.182;7.650;2024-01-30T00:31:04;7.40;85.40
12704;DHT22;6416;52.182;7.650;2024-01-30T00:33:30;7.40;85.40
12704;DHT22;6416;52.182;7.650;2024-01-30T00:35:55;7.40;85.40
12704;DHT22;6416;52.182;7.650;2024-01-30T00:38:21;7.30;85.30
12704;DHT22;6416;52.182;7.650;2024-01-30T00:40:46;7.30;85.70
12704;DHT22;6416;52.182;7.650;2024-01-30T00:43:11;7.20;85.80
12704;DHT22;6416;52.182;7.650;2024-01-30T00:45:37;7.20;86.10
12704;DHT22;6416;52.182;7.650;2024-01-30T00:48:03;7.20;86.50
12704;DHT22;6416;52.182;7.650;2024-01-30T00:50:28;7.10;87.20
12704;DHT22;6416;52.182;7.650;2024-01-30T00:52:54;7.10;87.40
12704;DHT22;6416;52.182;7.650;2024-01-30T00:55:19;7.10;87.60
12704;DHT22;6416;52.182;7.650;2024-01-30T00:57:45;7.10;87.90
12704;DHT22;6416;52.182;7.650;2024-01-30T01:00:12;7.10;88.10
12704;DHT22;6416;52.182;7.650;2024-01-30T01:02:37;7.10;88.10
12704;DHT22;6416;52.182;7.650;2024-01-30T01:05:03;7.10;88.40
12704;DHT22;6416;52.182;7.650;2024-01-30T01:07:28;7.10;88.80
12704;DHT22;6416;52.182;7.650;2024-01-30T01:09:54;7.10;89.30
12704;DHT22;6416;52.182;7.650;2024-01-30T01:12:19;7.10;89.70
12704;DHT22;6416;52.182;7.650;2024-01-30T01:14:45;7.20;89.80
12704;DHT22;6416;52.182;7.650;2024-01-30T01:17:11;7.20;90.00
12704;DHT22;6416;52.182;7.650;2024-01-30T01:19:37;7.20;90.00
12704;DHT22;6416;52.182;7.650;2024-01-30T01:22:02;7.30;90.20
12704;DHT22;6416;52.182;7.650;2024-01-30T01:24:28;7.30;90.30
12704;DHT22;6416;52.182;7.650;2024-01-30T01:26:53;7.30;90.40
12704;DHT22;6416;52.182;7.650;2024-01-30T01:29:19;7.40;90.50
12704;DHT22;6416;52.182;7.650;2024-01-30T01:31:44;7.40;90.70
12704;DHT22;6416;52.182;7.650;2024-01-30T01:34:10;7.50;90.60
12704;DHT22;6416;52.182;7.650;2024-01-30T01:36:36;7.50;91.20
12704;DHT22;6416;52.182;7.650;2024-01-30T01:39:04;7.60;90.80
12704;DHT22;6416;52.182;7.650;2024-01-30T01:41:33;7.60;90.70
12704;DHT22;6416;52.182;7.650;2024-01-30T01:43:59;7.70;90.90
12704;DHT22;6416;52.182;7.650;2024-01-30T01:46:30;7.70;90.90
12704;DHT22;6416;52.182;7.650;2024-01-30T01:48:56;7.80;91.20
12704;DHT22;6416;52.182;7.650;2024-01-30T01:51:23;7.80;91.20
12704;DHT22;6416;52.182;7.650;2024-01-30T01:53:50;7.80;91.30
12704;DHT22;6416;52.182;7.650;2024-01-30T01:56:16;7.90;91.40
12704;DHT22;6416;52.182;7.650;2024-01-30T01:58:42;7.90;91.50
12704;DHT22;6416;52.182;7.650;2024-01-30T02:01:08;8.00;91.60
12704;DHT22;6416;52.182;7.650;2024-01-30T02:03:34;8.00;91.50
12704;DHT22;6416;52.182;7.650;2024-01-30T02:06:00;8.10;91.60
12704;DHT22;6416;52.182;7.650;2024-01-30T02:08:26;8.10;91.80
12704;DHT22;6416;52.182;7.650;2024-01-30T02:10:52;8.10;91.70
12704;DHT22;6416;52.182;7.650;2024-01-30T02:13:17;8.20;91.70
12704;DHT22;6416;52.182;7.650;2024-01-30T02:15:43;8.20;91.70
12704;DHT22;6416;52.182;7.650;2024-01-30T02:18:08;8.30;91.70
12704;DHT22;6416;52.182;7.650;2024-01-30T02:20:35;8.30;91.60
12704;DHT22;6416;52.182;7.650;2024-01-30T02:23:02;8.30;91.50
12704;DHT22;6416;52.182;7.650;2024-01-30T02:25:35;8.30;91.40
12704;DHT22;6416;52.182;7.650;2024-01-30T02:28:01;8.30;91.40
12704;DHT22;6416;52.182;7.650;2024-01-30T02:30:26;8.30;91.40
12704;DHT22;6416;52.182;7.650;2024-01-30T02:32:52;8.30;91.70
12704;DHT22;6416;52.182;7.650;2024-01-30T02:35:17;8.30;91.30
12704;DHT22;6416;52.182;7.650;2024-01-30T02:37:43;8.30;91.30
12704;DHT22;6416;52.182;7.650;2024-01-30T02:40:08;8.30;91.40
12704;DHT22;6416;52.182;7.650;2024-01-30T02:42:34;8.30;91.40
12704;DHT22;6416;52.182;7.650;2024-01-30T02:44:59;8.30;91.40
12704;DHT22;6416;52.182;7.650;2024-01-30T02:47:25;8.30;91.30
12704;DHT22;6416;52.182;7.650;2024-01-30T02:49:50;8.30;91.30
12704;DHT22;6416;52.182;7.650;2024-01-30T02:52:16;8.30;91.40
12704;DHT22;6416;52.182;7.650;2024-01-30T02:54:41;8.30;91.40
12704;DHT22;6416;52.182;7.650;2024-01-30T02:57:07;8.30;91.40
12704;DHT22;6416;52.182;7.650;2024-01-30T02:59:32;8.30;91.50
12704;DHT22;6416;52.182;7.650;2024-01-30T03:01:57;8.30;91.50
12704;DHT22;6416;52.182;7.650;2024-01-30T03:04:23;8.30;91.40
12704;DHT22;6416;52.182;7.650;2024-01-30T03:06:51;8.30;91.40
12704;DHT22;6416;52.182;7.650;2024-01-30T03:09:17;8.20;91.40
12704;DHT22;6416;52.182;7.650;2024-01-30T03:11:42;8.20;91.40
12704;DHT22;6416;52.182;7.650;2024-01-30T03:14:08;8.20;91.50
12704;DHT22;6416;52.182;7.650;2024-01-30T03:16:33;8.20;91.60
12704;DHT22;6416;52.182;7.650;2024-01-30T03:18:59;8.10;91.60
12704;DHT22;6416;52.182;7.650;2024-01-30T03:21:24;8.10;91.80
12704;DHT22;6416;52.182;7.650;2024-01-30T03:23:50;8.10;91.90
12704;DHT22;6416;52.182;7.650;2024-01-30T03:26:15;8.10;91.90
12704;DHT22;6416;52.182;7.650;2024-01-30T03:28:40;8.10;91.90
12704;DHT22;6416;52.182;7.650;2024-01-30T03:31:06;8.10;92.00
12704;DHT22;6416;52.182;7.650;2024-01-30T03:33:32;8.10;91.90
12704;DHT22;6416;52.182;7.650;2024-01-30T03:35:57;8.10;91.80
12704;DHT22;6416;52.182;7.650;2024-01-30T03:38:23;8.00;91.80
12704;DHT22;6416;52.182;7.650;2024-01-30T03:40:48;8.00;91.80
12704;DHT22;6416;52.182;7.650;2024-01-30T03:43:14;8.00;91.70
12704;DHT22;6416;52.182;7.650;2024-01-30T03:45:39;7.90;91.70
12704;DHT22;6416;52.182;7.650;2024-01-30T03:48:05;7.90;91.70
12704;DHT22;6416;52.182;7.650;2024-01-30T03:50:31;7.90;91.80
12704;DHT22;6416;52.182;7.650;2024-01-30T03:52:56;7.80;91.80
12704;DHT22;6416;52.182;7.650;2024-01-30T03:55:22;7.80;91.80
12704;DHT22;6416;52.182;7.650;2024-01-30T03:57:47;7.80;91.90
12704;DHT22;6416;52.182;7.650;2024-01-30T04:00:14;7.70;91.90
12704;DHT22;6416;52.182;7.650;2024-01-30T04:02:39;7.70;91.80
12704;DHT22;6416;52.182;7.650;2024-01-30T04:05:08;7.70;91.80
12704;DHT22;6416;52.182;7.650;2024-01-30T04:07:33;7.60;91.80
12704;DHT22;6416;52.182;7.650;2024-01-30T04:09:59;7.60;91.80
12704;DHT22;6416;52.182;7.650;2024-01-30T04:12:24;7.50;91.80
12704;DHT22;6416;52.182;7.650;2024-01-30T04:14:49;7.50;91.80
12704;DHT22;6416;52.182;7.650;2024-01-30T04:17:15;7.40;91.60
12704;DHT22;6416;52.182;7.650;2024-01-30T04:19:40;7.40;91.60
12704;DHT22;6416;52.182;7.650;2024-01-30T04:22:06;7.30;91.60
12704;DHT22;6416;52.182;7.650;2024-01-30T04:24:31;7.30;91.70
12704;DHT22;6416;52.182;7.650;2024-01-30T04:26:57;7.20;91.80
12704;DHT22;6416;52.182;7.650;2024-01-30T04:29:22;7.20;91.90
12704;DHT22;6416;52.182;7.650;2024-01-30T04:31:48;7.10;92.00
12704;DHT22;6416;52.182;7.650;2024-01-30T04:34:13;7.10;92.10
12704;DHT22;6416;52.182;7.650;2024-01-30T04:36:39;7.00;92.20
12704;DHT22;6416;52.182;7.650;2024-01-30T04:39:04;7.00;92.20
12704;DHT22;6416;52.182;7.650;2024-01-30T04:41:29;6.90;92.30
12704;DHT22;6416;52.182;7.650;2024-01-30T04:43:55;6.90;92.40
12704;DHT22;6416;52.182;7.650;2024-01-30T04:46:20;6.90;92.50
12704;DHT22;6416;52.182;7.650;2024-01-30T04:48:46;6.90;92.60
12704;DHT22;6416;52.182;7.650;2024-01-30T04:51:11;6.90;92.80
12704;DHT22;6416;52.182;7.650;2024-01-30T04:53:37;6.90;92.90
12704;DHT22;6416;52.182;7.650;2024-01-30T04:56:02;6.80;93.10
12704;DHT22;6416;52.182;7.650;2024-01-30T04:58:29;6.90;93.30
12704;DHT22;6416;52.182;7.650;2024-01-30T05:00:55;6.90;93.30
12704;DHT22;6416;52.182;7.650;2024-01-30T05:03:20;6.90;93.60
12704;DHT22;6416;52.182;7.650;2024-01-30T05:05:46;6.90;93.30
12704;DHT22;6416;52.182;7.650;2024-01-30T05:08:11;6.90;93.40
12704;DHT22;6416;52.182;7.650;2024-01-30T05:10:37;6.90;93.40
12704;DHT22;6416;52.182;7.650;2024-01-30T05:13:02;6.90;93.40
12704;DHT22;6416;52.182;7.650;2024-01-30T05:15:28;6.90;93.40
12704;DHT22;6416;52.182;7.650;2024-01-30T05:17:53;7.00;93.50
12704;DHT22;6416;52.182;7.650;2024-01-30T05:20:19;7.00;93.70
12704;DHT22;6416;52.182;7.650;2024-01-30T05:22:45;7.00;93.80
12704;DHT22;6416;52.182;7.650;2024-01-30T05:25:12;7.00;93.70
12704;DHT22;6416;52.182;7.650;2024-01-30T05:27:37;7.00;93.60
12704;DHT22;6416;52.182;7.650;2024-01-30T05:30:03;7.00;93.40
12704;DHT22;6416;52.182;7.650;2024-01-30T05:32:29;7.10;93.50
12704;DHT22;6416;52.182;7.650;2024-01-30T05:34:54;7.00;93.50
12704;DHT22;6416;52.182;7.650;2024-01-30T05:37:19;7.00;93.50
12704;DHT22;6416;52.182;7.650;2024-01-30T05:39:45;7.00;93.60
12704;DHT22;6416;52.182;7.650;2024-01-30T05:42:10;6.90;93.60
12704;DHT22;6416;52.182;7.650;2024-01-30T05:44:36;7.00;93.60
12704;DHT22;6416;52.182;7.650;2024-01-30T05:47:01;7.10;93.70
12704;DHT22;6416;52.182;7.650;2024-01-30T05:49:27;7.00;93.80
12704;DHT22;6416;52.182;7.650;2024-01-30T05:51:52;7.10;93.90
12704;DHT22;6416;52.182;7.650;2024-01-30T05:54:18;7.10;94.00
12704;DHT22;6416;52.182;7.650;2024-01-30T05:56:43;7.10;94.10
12704;DHT22;6416;52.182;7.650;2024-01-30T05:59:09;7.10;94.20
12704;DHT22;6416;52.182;7.650;2024-01-30T06:01:34;7.10;94.20
12704;DHT22;6416;52.182;7.650;2024-01-30T06:04:00;7.20;94.30
12704;DHT22;6416;52.182;7.650;2024-01-30T06:06:25;7.20;94.40
12704;DHT22;6416;52.182;7.650;2024-01-30T06:08:50;7.20;94.30
12704;DHT22;6416;52.182;7.650;2024-01-30T06:11:16;7.20;94.30
12704;DHT22;6416;52.182;7.650;2024-01-30T06:13:41;7.20;94.30
12704;DHT22;6416;52.182;7.650;2024-01-30T06:16:09;7.30;94.40
12704;DHT22;6416;52.182;7.650;2024-01-30T06:18:35;7.30;94.60
12704;DHT22;6416;52.182;7.650;2024-01-30T06:21:00;7.30;94.80
12704;DHT22;6416;52.182;7.650;2024-01-30T06:23:26;7.30;95.00
12704;DHT22;6416;52.182;7.650;2024-01-30T06:25:51;7.40;95.10
12704;DHT22;6416;52.182;7.650;2024-01-30T06:28:17;7.50;95.20
12704;DHT22;6416;52.182;7.650;2024-01-30T06:30:42;7.50;95.20
12704;DHT22;6416;52.182;7.650;2024-01-30T06:33:08;7.60;95.30
12704;DHT22;6416;52.182;7.650;2024-01-30T06:35:33;7.60;95.90
12704;DHT22;6416;52.182;7.650;2024-01-30T06:37:59;7.70;96.00
12704;DHT22;6416;52.182;7.650;2024-01-30T06:40:24;7.70;95.60
12704;DHT22;6416;52.182;7.650;2024-01-30T06:42:50;7.80;95.40
12704;DHT22;6416;52.182;7.650;2024-01-30T06:45:15;7.80;95.10
12704;DHT22;6416;52.182;7.650;2024-01-30T06:47:41;7.80;94.90
12704;DHT22;6416;52.182;7.650;2024-01-30T06:50:06;7.90;94.70
12704;DHT22;6416;52.182;7.650;2024-01-30T06:52:32;7.90;94.60
12704;DHT22;6416;52.182;7.650;2024-01-30T06:54:57;7.90;94.50
12704;DHT22;6416;52.182;7.650;2024-01-30T06:57:23;7.90;94.50
12704;DHT22;6416;52.182;7.650;2024-01-30T06:59:48;7.80;94.40
12704;DHT22;6416;52.182;7.650;2024-01-30T07:02:14;7.80;94.40
12704;DHT22;6416;52.182;7.650;2024-01-30T07:04:39;7.80;94.50
12704;DHT22;6416;52.182;7.650;2024-01-30T07:07:05;7.80;94.50
12704;DHT22;6416;52.182;7.650;2024-01-30T07:09:31;7.80;94.50
12704;DHT22;6416;52.182;7.650;2024-01-30T07:11:56;7.80;94.50
12704;DHT22;6416;52.182;7.650;2024-01-30T07:14:22;7.80;94.60
12704;DHT22;6416;52.182;7.650;2024-01-30T07:16:47;7.80;94.60
12704;DHT22;6416;52.182;7.650;2024-01-30T07:19:13;7.80;94.60
12704;DHT22;6416;52.182;7.650;2024-01-30T07:21:38;7.80;94.60
12704;DHT22;6416;52.182;7.650;2024-01-30T07:24:04;7.80;94.50
12704;DHT22;6416;52.182;7.650;2024-01-30T07:26:29;7.80;94.50
12704;DHT22;6416;52.182;7.650;2024-01-30T07:28:54;7.80;94.60
12704;DHT22;6416;52.182;7.650;2024-01-30T07:31:20;7.80;94.60
12704;DHT22;6416;52.182;7.650;2024-01-30T07:33:46;7.80;94.70
12704;DHT22;6416;52.182;7.650;2024-01-30T07:36:11;7.80;94.80
12704;DHT22;6416;52.182;7.650;2024-01-30T07:38:37;7.80;94.70
12704;DHT22;6416;52.182;7.650;2024-01-30T07:41:02;7.80;94.80
12704;DHT22;6416;52.182;7.650;2024-01-30T07:43:28;7.80;94.90
12704;DHT22;6416;52.182;7.650;2024-01-30T07:45:53;7.90;95.00
12704;DHT22;6416;52.182;7.650;2024-01-30T07:48:18;7.90;95.00
12704;DHT22;6416;52.182;7.650;2024-01-30T07:50:44;7.90;95.00
12704;DHT22;6416;52.182;7.650;2024-01-30T07:53:09;7.90;95.10
12704;DHT22;6416;52.182;7.650;2024-01-30T07:55:35;7.90;95.20
12704;DHT22;6416;52.182;7.650;2024-01-30T07:58:00;8.00;95.30
12704;DHT22;6416;52.182;7.650;2024-01-30T08:00:26;8.00;95.40
12704;DHT22;6416;52.182;7.650;2024-01-30T08:02:52;8.10;95.50
12704;DHT22;6416;52.182;7.650;2024-01-30T08:05:17;8.10;95.60
12704;DHT22;6416;52.182;7.650;2024-01-30T08:07:43;8.20;95.70
12704;DHT22;6416;52.182;7.650;2024-01-30T08:10:08;8.20;95.70
12704;DHT22;6416;52.182;7.650;2024-01-30T08:12:34;8.30;95.60
12704;DHT22;6416;52.182;7.650;2024-01-30T08:14:59;8.40;95.60
12704;DHT22;6416;52.182;7.650;2024-01-30T08:17:25;8.40;95.60
12704;DHT22;6416;52.182;7.650;2024-01-30T08:19:50;8.50;95.60
12704;DHT22;6416;52.182;7.650;2024-01-30T08:22:16;8.50;95.50
12704;DHT22;6416;52.182;7.650;2024-01-30T08:24:41;8.60;95.40
12704;DHT22;6416;52.182;7.650;2024-01-30T08:27:07;8.60;95.30
12704;DHT22;6416;52.182;7.650;2024-01-30T08:29:33;8.70;95.20
12704;DHT22;6416;52.182;7.650;2024-01-30T08:31:58;8.70;95.10
12704;DHT22;6416;52.182;7.650;2024-01-30T08:34:24;8.80;95.10
12704;DHT22;6416;52.182;7.650;2024-01-30T08:36:49;8.80;95.10
12704;DHT22;6416;52.182;7.650;2024-01-30T08:39:14;8.90;95.10
12704;DHT22;6416;52.182;7.650;2024-01-30T08:41:40;8.90;95.10
12704;DHT22;6416;52.182;7.650;2024-01-30T08:44:05;8.90;95.10
12704;DHT22;6416;52.182;7.650;2024-01-30T08:46:31;9.00;95.10
12704;DHT22;6416;52.182;7.650;2024-01-30T08:48:56;9.10;95.10
12704;DHT22;6416;52.182;7.650;2024-01-30T08:51:22;9.10;95.00
12704;DHT22;6416;52.182;7.650;2024-01-30T08:53:47;9.20;95.00
12704;DHT22;6416;52.182;7.650;2024-01-30T08:56:13;9.20;94.90
12704;DHT22;6416;52.182;7.650;2024-01-30T08:58:38;9.30;95.00
12704;DHT22;6416;52.182;7.650;2024-01-30T09:01:05;9.30;94.90
12704;DHT22;6416;52.182;7.650;2024-01-30T09:03:31;9.30;94.90
12704;DHT22;6416;52.182;7.650;2024-01-30T09:05:57;9.40;94.90
12704;DHT22;6416;52.182;7.650;2024-01-30T09:08:22;9.50;94.90
12704;DHT22;6416;52.182;7.650;2024-01-30T09:10:48;9.50;94.90
12704;DHT22;6416;52.182;7.650;2024-01-30T09:13:13;9.60;94.90
12704;DHT22;6416;52.182;7.650;2024-01-30T09:15:39;9.60;94.90
12704;DHT22;6416;52.182;7.650;2024-01-30T09:18:04;9.70;95.00
12704;DHT22;6416;52.182;7.650;2024-01-30T09:20:30;9.70;95.10
12704;DHT22;6416;52.182;7.650;2024-01-30T09:22:55;9.80;95.10
12704;DHT22;6416;52.182;7.650;2024-01-30T09:25:21;9.90;95.10
12704;DHT22;6416;52.182;7.650;2024-01-30T09:27:46;10.00;94.40
12704;DHT22;6416;52.182;7.650;2024-01-30T09:30:12;10.10;94.40
12704;DHT22;6416;52.182;7.650;2024-01-30T09:32:39;10.20;94.30
12704;DHT22;6416;52.182;7.650;2024-01-30T09:35:05;10.20;94.20
12704;DHT22;6416;52.182;7.650;2024-01-30T09:37:30;10.30;94.20
12704;DHT22;6416;52.182;7.650;2024-01-30T09:39:56;10.30;94.20
12704;DHT22;6416;52.182;7.650;2024-01-30T09:42:48;10.40;94.40
12704;DHT22;6416;52.182;7.650;2024-01-30T09:45:15;10.40;94.00
12704;DHT22;6416;52.182;7.650;2024-01-30T09:47:41;10.50;94.40
12704;DHT22;6416;52.182;7.650;2024-01-30T09:50:08;10.50;94.00
12704;DHT22;6416;52.182;7.650;2024-01-30T09:52:34;10.50;94.00
12704;DHT22;6416;52.182;7.650;2024-01-30T09:55:00;10.60;93.90
12704;DHT22;6416;52.182;7.650;2024-01-30T09:57:26;10.60;93.90
12704;DHT22;6416;52.182;7.650;2024-01-30T09:59:51;10.70;93.90
12704;DHT22;6416;52.182;7.650;2024-01-30T10:02:17;10.70;93.90
12704;DHT22;6416;52.182;7.650;2024-01-30T10:04:44;10.70;93.90
12704;DHT22;6416;52.182;7.650;2024-01-30T10:07:10;10.80;93.80
12704;DHT22;6416;52.182;7.650;2024-01-30T10:09:37;10.80;93.60
12704;DHT22;6416;52.182;7.650;2024-01-30T10:12:02;10.90;93.70
12704;DHT22;6416;52.182;7.650;2024-01-30T10:14:28;11.00;93.70
12704;DHT22;6416;52.182;7.650;2024-01-30T10:16:54;11.00;93.60
12704;DHT22;6416;52.182;7.650;2024-01-30T10:19:20;11.00;93.50
12704;DHT22;6416;52.182;7.650;2024-01-30T10:21:46;11.10;93.50
12704;DHT22;6416;52.182;7.650;2024-01-30T10:24:11;11.10;93.40
12704;DHT22;6416;52.182;7.650;2024-01-30T10:26:38;11.10;93.30
12704;DHT22;6416;52.182;7.650;2024-01-30T10:29:03;11.20;93.40
12704;DHT22;6416;52.182;7.650;2024-01-30T10:31:29;11.20;93.40
12704;DHT22;6416;52.182;7.650;2024-01-30T10:33:55;11.20;93.40
12704;DHT22;6416;52.182;7.650;2024-01-30T10:36:27;11.30;93.50
12704;DHT22;6416;52.182;7.650;2024-01-30T10:38:55;11.30;93.40
12704;DHT22;6416;52.182;7.650;2024-01-30T10:41:28;11.40;93.40
12704;DHT22;6416;52.182;7.650;2024-01-30T10:44:08;11.40;93.30
12704;DHT22;6416;52.182;7.650;2024-01-30T10:46:35;11.50;93.40
12704;DHT22;6416;52.182;7.650;2024-01-30T10:49:03;11.50;93.20
12704;DHT22;6416;52.182;7.650;2024-01-30T10:51:29;11.60;93.30
12704;DHT22;6416;52.182;7.650;2024-01-30T10:53:56;11.60;93.20
12704;DHT22;6416;52.182;7.650;2024-01-30T10:56:22;11.60;93.20
12704;DHT22;6416;52.182;7.650;2024-01-30T10:58:50;11.70;93.20
12704;DHT22;6416;52.182;7.650;2024-01-30T11:01:16;11.80;93.20
12704;DHT22;6416;52.182;7.650;2024-01-30T11:03:42;11.80;93.20
12704;DHT22;6416;52.182;7.650;2024-01-30T11:06:11;11.90;93.20
12704;DHT22;6416;52.182;7.650;2024-01-30T11:08:36;12.00;93.30
12704;DHT22;6416;52.182;7.650;2024-01-30T11:11:08;12.10;93.40
12704;DHT22;6416;52.182;7.650;2024-01-30T11:13:34;12.20;93.10
12704;DHT22;6416;52.182;7.650;2024-01-30T11:16:01;12.30;93.10
12704;DHT22;6416;52.182;7.650;2024-01-30T11:18:29;12.40;93.10
12704;DHT22;6416;52.182;7.650;2024-01-30T11:20:59;12.50;93.00
12704;DHT22;6416;52.182;7.650;2024-01-30T11:23:26;12.60;93.00
12704;DHT22;6416;52.182;7.650;2024-01-30T11:25:52;12.70;93.10
12704;DHT22;6416;52.182;7.650;2024-01-30T11:28:18;12.90;93.40
12704;DHT22;6416;52.182;7.650;2024-01-30T11:30:43;13.10;93.40
12704;DHT22;6416;52.182;7.650;2024-01-30T11:33:12;13.20;93.30
12704;DHT22;6416;52.182;7.650;2024-01-30T11:35:40;13.50;93.20
12704;DHT22;6416;52.182;7.650;2024-01-30T11:38:07;13.60;92.70
12704;DHT22;6416;52.182;7.650;2024-01-30T11:40:34;13.70;92.40
12704;DHT22;6416;52.182;7.650;2024-01-30T11:43:01;13.80;92.20
12704;DHT22;6416;52.182;7.650;2024-01-30T11:45:27;13.90;91.90
12704;DHT22;6416;52.182;7.650;2024-01-30T11:47:53;13.90;91.90
12704;DHT22;6416;52.182;7.650;2024-01-30T11:50:19;13.90;91.90
12704;DHT22;6416;52.182;7.650;2024-01-30T11:52:45;13.90;91.80
12704;DHT22;6416;52.182;7.650;2024-01-30T11:55:11;13.90;91.90
12704;DHT22;6416;52.182;7.650;2024-01-30T11:57:37;13.90;91.90
12704;DHT22;6416;52.182;7.650;2024-01-30T12:00:03;13.90;91.90
12704;DHT22;6416;52.182;7.650;2024-01-30T12:02:29;14.00;91.90
12704;DHT22;6416;52.182;7.650;2024-01-30T12:04:55;14.00;92.00
12704;DHT22;6416;52.182;7.650;2024-01-30T12:07:20;14.00;91.90
12704;DHT22;6416;52.182;7.650;2024-01-30T12:09:53;14.00;91.90
12704;DHT22;6416;52.182;7.650;2024-01-30T12:12:18;14.00;91.80
12704;DHT22;6416;52.182;7.650;2024-01-30T12:14:44;14.00;91.80
12704;DHT22;6416;52.182;7.650;2024-01-30T12:17:09;14.00;91.70
12704;DHT22;6416;52.182;7.650;2024-01-30T12:19:35;14.00;91.70
12704;DHT22;6416;52.182;7.650;2024-01-30T12:22:00;14.00;91.80
12704;DHT22;6416;52.182;7.650;2024-01-30T12:24:27;14.00;91.80
12704;DHT22;6416;52.182;7.650;2024-01-30T12:26:57;14.00;91.70
12704;DHT22;6416;52.182;7.650;2024-01-30T12:29:22;14.00;91.80
12704;DHT22;6416;52.182;7.650;2024-01-30T12:31:48;14.00;91.80
12704;DHT22;6416;52.182;7.650;2024-01-30T12:34:16;14.00;91.80
12704;DHT22;6416;52.182;7.650;2024-01-30T12:36:42;14.00;91.80
12704;DHT22;6416;52.182;7.650;2024-01-30T12:39:11;14.10;91.90
12704;DHT22;6416;52.182;7.650;2024-01-30T12:41:37;14.10;91.90
12704;DHT22;6416;52.182;7.650;2024-01-30T12:44:03;14.10;91.80
12704;DHT22;6416;52.182;7.650;2024-01-30T12:46:28;14.10;91.60
12704;DHT22;6416;52.182;7.650;2024-01-30T12:48:54;14.10;91.70
12704;DHT22;6416;52.182;7.650;2024-01-30T12:51:19;14.00;91.60
12704;DHT22;6416;52.182;7.650;2024-01-30T12:53:44;14.00;91.60
12704;DHT22;6416;52.182;7.650;2024-01-30T12:56:10;14.00;91.60
12704;DHT22;6416;52.182;7.650;2024-01-30T12:58:35;14.00;91.80
12704;DHT22;6416;52.182;7.650;2024-01-30T13:01:01;14.00;91.60
12704;DHT22;6416;52.182;7.650;2024-01-30T13:03:26;14.00;91.60
12704;DHT22;6416;52.182;7.650;2024-01-30T13:05:52;14.00;91.50
12704;DHT22;6416;52.182;7.650;2024-01-30T13:08:17;14.00;91.60
12704;DHT22;6416;52.182;7.650;2024-01-30T13:10:43;14.00;91.60
12704;DHT22;6416;52.182;7.650;2024-01-30T13:13:08;14.00;91.70
12704;DHT22;6416;52.182;7.650;2024-01-30T13:15:34;14.00;91.50
12704;DHT22;6416;52.182;7.650;2024-01-30T13:17:59;14.00;91.50
12704;DHT22;6416;52.182;7.650;2024-01-30T13:20:25;14.10;91.60
12704;DHT22;6416;52.182;7.650;2024-01-30T13:22:50;14.10;91.70
12704;DHT22;6416;52.182;7.650;2024-01-30T13:25:16;14.10;91.60
12704;DHT22;6416;52.182;7.650;2024-01-30T13:27:41;14.10;91.40
12704;DHT22;6416;52.182;7.650;2024-01-30T13:30:08;14.20;91.60
12704;DHT22;6416;52.182;7.650;2024-01-30T13:32:33;14.20;91.40
12704;DHT22;6416;52.182;7.650;2024-01-30T13:35:01;14.20;91.50
12704;DHT22;6416;52.182;7.650;2024-01-30T13:37:27;14.20;91.40
12704;DHT22;6416;52.182;7.650;2024-01-30T13:39:52;14.20;91.10
12704;DHT22;6416;52.182;7.650;2024-01-30T13:42:18;14.20;91.00
12704;DHT22;6416;52.182;7.650;2024-01-30T13:44:43;14.20;90.90
12704;DHT22;6416;52.182;7.650;2024-01-30T13:47:09;14.20;90.80
12704;DHT22;6416;52.182;7.650;2024-01-30T13:49:35;14.20;90.80
12704;DHT22;6416;52.182;7.650;2024-01-30T13:52:00;14.20;90.70
12704;DHT22;6416;52.182;7.650;2024-01-30T13:54:25;14.20;90.70
12704;DHT22;6416;52.182;7.650;2024-01-30T13:56:51;14.20;90.80
12704;DHT22;6416;52.182;7.650;2024-01-30T13:59:17;14.20;91.00
12704;DHT22;6416;52.182;7.650;2024-01-30T14:01:42;14.20;90.70
12704;DHT22;6416;52.182;7.650;2024-01-30T14:04:08;14.10;90.50
12704;DHT22;6416;52.182;7.650;2024-01-30T14:06:33;14.10;90.70
12704;DHT22;6416;52.182;7.650;2024-01-30T14:08:59;14.10;90.80
12704;DHT22;6416;52.182;7.650;2024-01-30T14:11:24;14.10;90.70
12704;DHT22;6416;52.182;7.650;2024-01-30T14:13:50;14.10;90.70
12704;DHT22;6416;52.182;7.650;2024-01-30T14:16:15;14.10;90.60
12704;DHT22;6416;52.182;7.650;2024-01-30T14:18:41;14.10;90.70
12704;DHT22;6416;52.182;7.650;2024-01-30T14:21:06;14.20;90.60
12704;DHT22;6416;52.182;7.650;2024-01-30T14:23:32;14.20;90.60
12704;DHT22;6416;52.182;7.650;2024-01-30T14:25:57;14.20;90.60
12704;DHT22;6416;52.182;7.650;2024-01-30T14:28:23;14.20;90.70
12704;DHT22;6416;52.182;7.650;2024-01-30T14:30:48;14.20;90.70
12704;DHT22;6416;52.182;7.650;2024-01-30T14:33:14;14.20;90.60
12704;DHT22;6416;52.182;7.650;2024-01-30T14:35:40;14.30;90.80
12704;DHT22;6416;52.182;7.650;2024-01-30T14:38:05;14.40;90.70
12704;DHT22;6416;52.182;7.650;2024-01-30T14:40:31;14.40;90.50
12704;DHT22;6416;52.182;7.650;2024-01-30T14:42:56;14.40;90.10
12704;DHT22;6416;52.182;7.650;2024-01-30T14:45:22;14.50;89.70
12704;DHT22;6416;52.182;7.650;2024-01-30T14:47:47;14.50;88.80
12704;DHT22;6416;52.182;7.650;2024-01-30T14:50:13;14.40;88.70
12704;DHT22;6416;52.182;7.650;2024-01-30T14:52:39;14.40;88.30
12704;DHT22;6416;52.182;7.650;2024-01-30T14:55:04;14.40;87.80
12704;DHT22;6416;52.182;7.650;2024-01-30T14:57:30;14.30;87.30
12704;DHT22;6416;52.182;7.650;2024-01-30T14:59:55;14.30;87.10
12704;DHT22;6416;52.182;7.650;2024-01-30T15:02:21;14.20;86.90
12704;DHT22;6416;52.182;7.650;2024-01-30T15:04:46;14.20;86.70
12704;DHT22;6416;52.182;7.650;2024-01-30T15:07:12;14.10;86.40
12704;DHT22;6416;52.182;7.650;2024-01-30T15:09:37;14.00;86.10
12704;DHT22;6416;52.182;7.650;2024-01-30T15:12:03;14.00;86.00
12704;DHT22;6416;52.182;7.650;2024-01-30T15:14:29;13.90;86.10
12704;DHT22;6416;52.182;7.650;2024-01-30T15:16:54;13.80;86.40
12704;DHT22;6416;52.182;7.650;2024-01-30T15:19:20;13.80;86.50
12704;DHT22;6416;52.182;7.650;2024-01-30T15:21:45;13.70;86.20
12704;DHT22;6416;52.182;7.650;2024-01-30T15:24:11;13.70;86.20
12704;DHT22;6416;52.182;7.650;2024-01-30T15:26:36;13.60;86.40
12704;DHT22;6416;52.182;7.650;2024-01-30T15:29:02;13.50;86.60
12704;DHT22;6416;52.182;7.650;2024-01-30T15:31:27;13.50;86.70
12704;DHT22;6416;52.182;7.650;2024-01-30T15:33:53;13.50;87.00
12704;DHT22;6416;52.182;7.650;2024-01-30T15:36:18;13.50;86.90
12704;DHT22;6416;52.182;7.650;2024-01-30T15:38:44;13.40;87.00
12704;DHT22;6416;52.182;7.650;2024-01-30T15:41:09;13.40;87.20
12704;DHT22;6416;52.182;7.650;2024-01-30T15:43:35;13.40;87.30
12704;DHT22;6416;52.182;7.650;2024-01-30T15:46:00;13.40;86.40